Wetterstation Vordersexau
Wetterdaten: Woche 30.09.13 - 06.10.13 (KW40)
Datum Zeit Temp. A. Feuchte A. Luftdruck Regen Wind Richtung Taupunkt Windchill Windben
30.09.2013 00:00 13,6 C 82 % 1004,4 hPa 0,0 l/m 0,0 km/h NW 10,6 C 13,6 C 0,0 km/h
30.09.2013 01:00 13,2 C 82 % 1004,3 hPa 0,0 l/m 0,0 km/h NW 10,2 C 13,2 C 0,0 km/h
30.09.2013 02:00 12,9 C 82 % 1004,0 hPa 0,0 l/m 0,0 km/h NW 9,9 C 12,9 C 0,0 km/h
30.09.2013 03:00 13,1 C 80 % 1003,9 hPa 0,0 l/m 0,0 km/h NW 9,7 C 13,1 C 0,0 km/h
30.09.2013 04:00 12,9 C 80 % 1003,8 hPa 0,0 l/m 0,0 km/h NW 9,5 C 12,9 C 0,0 km/h
30.09.2013 05:00 12,9 C 79 % 1003,9 hPa 0,0 l/m 0,0 km/h NW 9,3 C 12,9 C 0,0 km/h
30.09.2013 06:00 11,8 C 83 % 1003,7 hPa 0,0 l/m 0,0 km/h NW 9,0 C 11,8 C 0,0 km/h
30.09.2013 07:00 11,1 C 83 % 1003,6 hPa 0,0 l/m 0,0 km/h W-NW 8,3 C 11,1 C 0,0 km/h
30.09.2013 08:00 11,3 C 83 % 1003,8 hPa 0,0 l/m 0,0 km/h NW 8,5 C 11,3 C 0,0 km/h
30.09.2013 09:00 11,6 C 84 % 1004,0 hPa 0,0 l/m 0,0 km/h NW 9,0 C 11,6 C 0,0 km/h
30.09.2013 10:00 12,6 C 82 % 1004,0 hPa 0,0 l/m 0,0 km/h W 9,6 C 12,6 C 0,0 km/h
30.09.2013 11:00 14,6 C 79 % 1004,1 hPa 0,0 l/m 0,0 km/h N 11,0 C 14,6 C 0,0 km/h
30.09.2013 12:00 16,8 C 71 % 1004,4 hPa 0,0 l/m 4,5 km/h N-NO 11,5 C 16,8 C 2,5 km/h
30.09.2013 13:00 17,2 C 69 % 1004,6 hPa 0,0 l/m 0,0 km/h N-NO 11,5 C 17,2 C 0,0 km/h
30.09.2013 14:00 18,6 C 66 % 1004,4 hPa 0,0 l/m 0,6 km/h W 12,1 C 18,6 C 0,4 km/h
30.09.2013 15:00 20,4 C 61 % 1004,2 hPa 0,0 l/m 1,3 km/h N-NO 12,6 C 20,4 C 0,7 km/h
30.09.2013 16:00 17,3 C 69 % 1004,6 hPa 0,0 l/m 0,0 km/h N-NO 11,6 C 17,3 C 0,0 km/h
30.09.2013 17:00 16,2 C 73 % 1004,6 hPa 0,0 l/m 0,0 km/h NO 11,4 C 16,2 C 0,0 km/h
30.09.2013 18:00 15,5 C 76 % 1004,9 hPa 0,0 l/m 0,0 km/h NO 11,3 C 15,5 C 0,0 km/h
30.09.2013 19:00 14,2 C 79 % 1005,2 hPa 0,0 l/m 0,0 km/h NO 10,6 C 14,2 C 0,0 km/h
30.09.2013 20:00 13,4 C 80 % 1005,4 hPa 0,0 l/m 0,0 km/h N-NO 10,0 C 13,4 C 0,0 km/h
30.09.2013 21:00 12,9 C 81 % 1006,1 hPa 0,0 l/m 0,0 km/h W-NW 9,7 C 12,9 C 0,0 km/h
30.09.2013 22:00 12,1 C 83 % 1006,5 hPa 0,0 l/m 0,0 km/h W-NW 9,3 C 12,1 C 0,0 km/h
30.09.2013 23:00 11,9 C 83 % 1006,8 hPa 0,0 l/m 0,0 km/h W-NW 9,1 C 11,9 C 0,0 km/h
01.10.2013 00:00 11,6 C 83 % 1007,0 hPa 0,0 l/m 0,0 km/h NW 8,8 C 11,6 C 0,0 km/h
01.10.2013 01:00 11,4 C 83 % 1007,0 hPa 0,0 l/m 0,0 km/h W-NW 8,6 C 11,4 C 0,0 km/h
01.10.2013 02:00 11,3 C 83 % 1007,0 hPa 0,0 l/m 0,0 km/h N-NW 8,5 C 11,3 C 0,0 km/h
01.10.2013 03:00 11,6 C 83 % 1006,7 hPa 0,0 l/m 0,0 km/h N-NO 8,8 C 11,6 C 0,0 km/h
01.10.2013 04:00 11,5 C 83 % 1006,5 hPa 0,0 l/m 0,0 km/h N-NO 8,7 C 11,5 C 0,0 km/h
01.10.2013 05:00 11,3 C 83 % 1007,0 hPa 0,0 l/m 0,0 km/h N-NO 8,5 C 11,3 C 0,0 km/h
01.10.2013 06:00 11,0 C 83 % 1007,0 hPa 0,0 l/m 0,0 km/h N-NO 8,2 C 11,0 C 0,0 km/h
01.10.2013 07:00 10,6 C 82 % 1007,1 hPa 0,0 l/m 0,0 km/h N-NO 7,7 C 10,6 C 0,0 km/h
01.10.2013 08:00 11,4 C 81 % 1007,5 hPa 0,0 l/m 0,0 km/h SO 8,3 C 11,4 C 0,0 km/h
01.10.2013 09:00 14,2 C 80 % 1007,7 hPa 0,0 l/m 0,0 km/h NO 10,8 C 14,2 C 0,0 km/h
01.10.2013 10:00 18,2 C 73 % 1008,3 hPa 0,0 l/m 6,5 km/h W-NW 13,3 C 18,2 C 3,6 km/h
01.10.2013 11:00 18,1 C 68 % 1008,5 hPa 0,0 l/m 2,6 km/h N-NW 12,1 C 18,1 C 1,4 km/h
01.10.2013 12:00 17,3 C 73 % 1008,4 hPa 0,0 l/m 3,2 km/h NO 12,4 C 17,3 C 1,8 km/h
01.10.2013 13:00 18,4 C 71 % 1008,3 hPa 0,0 l/m 0,0 km/h W 13,0 C 18,4 C 0,0 km/h
01.10.2013 14:00 18,5 C 70 % 1008,4 hPa 0,0 l/m 7,1 km/h N-NW 12,9 C 18,2 C 4,0 km/h
01.10.2013 15:00 19,5 C 69 % 1008,4 hPa 0,0 l/m 7,1 km/h W 13,7 C 19,2 C 4,0 km/h
01.10.2013 16:00 18,1 C 70 % 1008,7 hPa 0,0 l/m 2,6 km/h W-NW 12,5 C 18,1 C 1,4 km/h
01.10.2013 17:00 16,9 C 74 % 1008,9 hPa 0,0 l/m 1,3 km/h N-NW 12,2 C 16,9 C 0,7 km/h
01.10.2013 18:00 17,3 C 73 % 1008,8 hPa 0,0 l/m 0,0 km/h NO 12,4 C 17,3 C 0,0 km/h
01.10.2013 19:00 13,6 C 81 % 1009,3 hPa 0,0 l/m 0,0 km/h NO 10,4 C 13,6 C 0,0 km/h
01.10.2013 20:00 13,2 C 83 % 1009,6 hPa 0,0 l/m 0,0 km/h NO 10,4 C 13,2 C 0,0 km/h
01.10.2013 21:00 12,5 C 83 % 1010,2 hPa 0,0 l/m 0,0 km/h N 9,7 C 12,5 C 0,0 km/h
01.10.2013 22:00 11,2 C 82 % 1010,5 hPa 0,0 l/m 0,0 km/h NO 8,2 C 11,2 C 0,0 km/h
01.10.2013 23:00 11,7 C 79 % 1010,7 hPa 0,0 l/m 0,0 km/h O-SO 8,2 C 11,7 C 0,0 km/h
02.10.2013 00:00 11,1 C 79 % 1010,9 hPa 0,0 l/m 0,0 km/h O-NO 7,6 C 11,1 C 0,0 km/h
02.10.2013 01:00 11,4 C 77 % 1011,2 hPa 0,0 l/m 0,0 km/h O-SO 7,5 C 11,4 C 0,0 km/h
02.10.2013 02:00 11,4 C 77 % 1011,3 hPa 0,0 l/m 0,0 km/h SO 7,5 C 11,4 C 0,0 km/h
02.10.2013 03:00 10,4 C 79 % 1011,3 hPa 0,0 l/m 0,0 km/h SO 6,9 C 10,4 C 0,0 km/h
02.10.2013 04:00 9,6 C 82 % 1011,2 hPa 0,0 l/m 1,9 km/h NO 6,7 C 9,6 C 1,1 km/h
02.10.2013 05:00 8,5 C 82 % 1011,6 hPa 0,0 l/m 0,0 km/h NW 5,6 C 8,5 C 0,0 km/h
02.10.2013 06:00 8,6 C 77 % 1012,1 hPa 0,0 l/m 0,0 km/h N-NW 4,8 C 8,6 C 0,0 km/h
02.10.2013 07:00 8,1 C 76 % 1012,3 hPa 0,0 l/m 0,0 km/h N-NW 4,1 C 8,1 C 0,0 km/h
02.10.2013 08:00 8,2 C 72 % 1012,7 hPa 0,0 l/m 0,0 km/h W-NW 3,5 C 8,2 C 0,0 km/h
02.10.2013 09:00 9,4 C 75 % 1013,1 hPa 0,0 l/m 1,9 km/h N-NW 5,2 C 9,4 C 1,1 km/h
02.10.2013 10:00 13,8 C 79 % 1013,5 hPa 0,0 l/m 7,8 km/h N-NO 10,2 C 13,0 C 4,3 km/h
02.10.2013 11:00 16,4 C 72 % 1013,9 hPa 0,0 l/m 1,3 km/h W-NW 11,3 C 16,4 C 0,7 km/h
02.10.2013 12:00 17,8 C 66 % 1013,6 hPa 0,0 l/m 2,6 km/h NW 11,4 C 17,8 C 1,4 km/h
02.10.2013 13:00 20,2 C 59 % 1013,4 hPa 0,0 l/m 3,2 km/h W-NW 11,9 C 20,2 C 1,8 km/h
02.10.2013 14:00 21,4 C 59 % 1013,4 hPa 0,0 l/m 13,0 km/h W 13,0 C 19,4 C 7,2 km/h
02.10.2013 15:00 22,3 C 55 % 1013,5 hPa 0,0 l/m 0,0 km/h W 12,8 C 22,3 C 0,0 km/h
02.10.2013 16:00 23,3 C 52 % 1013,3 hPa 0,0 l/m 0,6 km/h NW 12,9 C 23,3 C 0,4 km/h
02.10.2013 17:00 22,1 C 55 % 1013,5 hPa 0,0 l/m 10,4 km/h W 12,6 C 20,9 C 5,8 km/h
02.10.2013 18:00 18,1 C 66 % 1013,8 hPa 0,0 l/m 0,0 km/h O-NO 11,6 C 18,1 C 0,0 km/h
02.10.2013 19:00 13,1 C 78 % 1014,2 hPa 0,0 l/m 0,0 km/h SO 9,4 C 13,1 C 0,0 km/h
02.10.2013 20:00 11,3 C 83 % 1014,4 hPa 0,0 l/m 0,0 km/h SO 8,5 C 11,3 C 0,0 km/h
02.10.2013 21:00 9,5 C 83 % 1014,9 hPa 0,0 l/m 0,0 km/h SO 6,8 C 9,5 C 0,0 km/h
02.10.2013 22:00 8,9 C 82 % 1015,6 hPa 0,0 l/m 0,0 km/h S-SO 6,0 C 8,9 C 0,0 km/h
02.10.2013 23:00 8,1 C 82 % 1015,7 hPa 0,0 l/m 0,0 km/h SO 5,2 C 8,1 C 0,0 km/h
03.10.2013 00:00 7,8 C 81 % 1015,6 hPa 0,0 l/m 0,0 km/h SO 4,7 C 7,8 C 0,0 km/h
03.10.2013 01:00 7,9 C 80 % 1015,7 hPa 0,0 l/m 0,6 km/h O-NO 4,7 C 7,9 C 0,4 km/h
03.10.2013 02:00 8,2 C 82 % 1015,7 hPa 0,0 l/m 0,0 km/h NO 5,3 C 8,2 C 0,0 km/h
03.10.2013 03:00 7,5 C 83 % 1015,7 hPa 0,0 l/m 0,0 km/h O-SO 4,8 C 7,5 C 0,0 km/h
03.10.2013 04:00 8,6 C 83 % 1015,6 hPa 0,0 l/m 0,0 km/h S-SO 5,9 C 8,6 C 0,0 km/h
03.10.2013 05:00 8,2 C 84 % 1015,8 hPa 0,0 l/m 0,0 km/h SO 5,7 C 8,2 C 0,0 km/h
03.10.2013 06:00 7,4 C 84 % 1015,5 hPa 0,0 l/m 2,6 km/h NO 4,9 C 7,4 C 1,4 km/h
03.10.2013 07:00 6,6 C 84 % 1015,5 hPa 0,0 l/m 0,0 km/h NO 4,1 C 6,6 C 0,0 km/h
03.10.2013 08:00 8,1 C 84 % 1016,0 hPa 0,0 l/m 0,0 km/h SO 5,6 C 8,1 C 0,0 km/h
03.10.2013 09:00 11,3 C 83 % 1016,2 hPa 0,0 l/m 0,0 km/h NO 8,5 C 11,3 C 0,0 km/h
03.10.2013 10:00 17,2 C 67 % 1016,0 hPa 0,0 l/m 0,0 km/h W-NW 11,0 C 17,2 C 0,0 km/h
03.10.2013 11:00 19,8 C 59 % 1016,2 hPa 0,0 l/m 0,0 km/h W 11,6 C 19,8 C 0,0 km/h
03.10.2013 12:00 21,6 C 55 % 1015,7 hPa 0,0 l/m 1,9 km/h NW 12,2 C 21,6 C 1,1 km/h
03.10.2013 13:00 20,8 C 57 % 1015,6 hPa 0,0 l/m 5,2 km/h N-NO 12,0 C 20,8 C 2,9 km/h
03.10.2013 14:00 20,9 C 57 % 1015,5 hPa 0,0 l/m 0,0 km/h W 12,1 C 20,9 C 0,0 km/h
03.10.2013 15:00 19,4 C 62 % 1015,1 hPa 0,0 l/m 4,5 km/h W 11,9 C 19,4 C 2,5 km/h
03.10.2013 16:00 19,5 C 61 % 1015,6 hPa 0,0 l/m 0,0 km/h N 11,8 C 19,5 C 0,0 km/h
03.10.2013 17:00 17,3 C 67 % 1015,1 hPa 0,0 l/m 0,0 km/h W 11,1 C 17,3 C 0,0 km/h
03.10.2013 18:00 15,4 C 72 % 1015,6 hPa 0,0 l/m 0,0 km/h W 10,4 C 15,4 C 0,0 km/h
03.10.2013 19:00 14,1 C 76 % 1014,7 hPa 0,0 l/m 0,0 km/h W-NW 9,9 C 14,1 C 0,0 km/h
03.10.2013 20:00 12,9 C 81 % 1016,1 hPa 0,0 l/m 0,0 km/h W-NW 9,7 C 12,9 C 0,0 km/h
03.10.2013 21:00 13,1 C 82 % 1016,0 hPa 0,0 l/m 0,0 km/h W-NW 10,1 C 13,1 C 0,0 km/h
03.10.2013 22:00 12,3 C 83 % 1016,2 hPa 0,0 l/m 0,0 km/h N-NO 9,5 C 12,3 C 0,0 km/h
03.10.2013 23:00 11,4 C 83 % 1016,1 hPa 0,0 l/m 0,0 km/h N-NO 8,6 C 11,4 C 0,0 km/h
04.10.2013 00:00 10,7 C 83 % 1016,2 hPa 0,0 l/m 0,0 km/h N-NO 7,9 C 10,7 C 0,0 km/h
04.10.2013 01:00 11,3 C 81 % 1016,3 hPa 0,0 l/m 0,0 km/h O-NO 8,2 C 11,3 C 0,0 km/h
04.10.2013 02:00 12,0 C 80 % 1016,6 hPa 0,0 l/m 0,0 km/h SO 8,7 C 12,0 C 0,0 km/h
04.10.2013 03:00 12,8 C 79 % 1016,3 hPa 0,0 l/m 0,0 km/h O 9,2 C 12,8 C 0,0 km/h
04.10.2013 04:00 12,3 C 80 % 1016,3 hPa 0,0 l/m 0,0 km/h O-SO 8,9 C 12,3 C 0,0 km/h
04.10.2013 05:00 12,3 C 79 % 1016,4 hPa 0,0 l/m 0,0 km/h NO 8,8 C 12,3 C 0,0 km/h
04.10.2013 06:00 12,9 C 78 % 1016,1 hPa 0,0 l/m 0,0 km/h W-SW 9,2 C 12,9 C 0,0 km/h
04.10.2013 07:00 13,0 C 77 % 1016,1 hPa 0,0 l/m 0,0 km/h O-NO 9,1 C 13,0 C 0,0 km/h
04.10.2013 08:00 13,6 C 77 % 1016,6 hPa 0,0 l/m 0,0 km/h NO 9,6 C 13,6 C 0,0 km/h
04.10.2013 09:00 14,4 C 78 % 1016,8 hPa 0,0 l/m 0,0 km/h W-NW 10,6 C 14,4 C 0,0 km/h
04.10.2013 10:00 16,7 C 82 % 1017,2 hPa 0,0 l/m 0,0 km/h W-SW 13,6 C 16,7 C 0,0 km/h
04.10.2013 11:00 18,6 C 80 % 1017,5 hPa 0,0 l/m 0,0 km/h N-NO 15,1 C 18,6 C 0,0 km/h
04.10.2013 12:00 18,8 C 77 % 1017,3 hPa 0,0 l/m 0,0 km/h S 14,7 C 18,8 C 0,0 km/h
04.10.2013 13:00 19,1 C 76 % 1017,3 hPa 0,0 l/m 0,0 km/h N 14,8 C 19,1 C 0,0 km/h
04.10.2013 14:00 22,2 C 72 % 1016,5 hPa 0,0 l/m 0,0 km/h SO 16,9 C 22,2 C 0,0 km/h
04.10.2013 15:00 24,3 C 67 % 1016,1 hPa 0,0 l/m 0,0 km/h W 17,8 C 24,3 C 0,0 km/h
04.10.2013 16:00 25,1 C 62 % 1015,4 hPa 0,0 l/m 0,0 km/h W-NW 17,3 C 25,1 C 0,0 km/h
04.10.2013 17:00 21,8 C 70 % 1015,2 hPa 0,0 l/m 0,0 km/h N 16,1 C 21,8 C 0,0 km/h
04.10.2013 18:00 19,5 C 78 % 1015,1 hPa 0,0 l/m 0,0 km/h NO 15,6 C 19,5 C 0,0 km/h
04.10.2013 19:00 17,2 C 82 % 1014,9 hPa 0,0 l/m 0,0 km/h NO 14,1 C 17,2 C 0,0 km/h
04.10.2013 20:00 16,9 C 82 % 1014,7 hPa 0,0 l/m 0,0 km/h SO 13,8 C 16,9 C 0,0 km/h
04.10.2013 21:00 16,4 C 82 % 1014,3 hPa 0,0 l/m 0,0 km/h SO 13,3 C 16,4 C 0,0 km/h
04.10.2013 22:00 15,9 C 81 % 1013,6 hPa 0,5 l/m 0,0 km/h N-NW 12,6 C 15,9 C 0,0 km/h
04.10.2013 23:00 15,6 C 75 % 1013,7 hPa 0,0 l/m 0,0 km/h NW 11,2 C 15,6 C 0,0 km/h
05.10.2013 00:00 15,3 C 73 % 1014,5 hPa 1,0 l/m 0,0 km/h NW 10,5 C 15,3 C 0,0 km/h
05.10.2013 01:00 14,9 C 72 % 1013,9 hPa 2,6 l/m 0,0 km/h NW 9,9 C 14,9 C 0,0 km/h
05.10.2013 02:00 15,0 C 71 % 1014,0 hPa 0,0 l/m 0,0 km/h NW 9,8 C 15,0 C 0,0 km/h
05.10.2013 03:00 14,9 C 69 % 1013,3 hPa 1,6 l/m 0,0 km/h W-NW 9,3 C 14,9 C 0,0 km/h
05.10.2013 04:00 14,6 C 66 % 1013,5 hPa 1,6 l/m 0,0 km/h W-NW 8,3 C 14,6 C 0,0 km/h
05.10.2013 05:00 14,9 C 64 % 1013,0 hPa 2,1 l/m 0,0 km/h N-NO 8,2 C 14,9 C 0,0 km/h
05.10.2013 06:00 15,3 C 64 % 1013,0 hPa 3,1 l/m 0,0 km/h W-NW 8,5 C 15,3 C 0,0 km/h
05.10.2013 07:00 15,0 C 63 % 1013,0 hPa 4,7 l/m 0,0 km/h W-NW 8,0 C 15,0 C 0,0 km/h
05.10.2013 08:00 15,3 C 62 % 1013,6 hPa 3,6 l/m 0,0 km/h S-SW 8,1 C 15,3 C 0,0 km/h
05.10.2013 09:00 15,6 C 61 % 1013,5 hPa 2,1 l/m 0,0 km/h S-SW 8,1 C 15,6 C 0,0 km/h
05.10.2013 10:00 16,4 C 61 % 1014,3 hPa 0,0 l/m 18,1 km/h SO 8,9 C 12,0 C 10,1 km/h
05.10.2013 11:00 19,1 C 71 % 1014,2 hPa 0,0 l/m 0,0 km/h W-SW 13,7 C 19,1 C 0,0 km/h
05.10.2013 12:00 21,4 C 75 % 1014,0 hPa 0,0 l/m 0,0 km/h S 16,8 C 21,4 C 0,0 km/h
05.10.2013 13:00 22,3 C 70 % 1013,7 hPa 0,0 l/m 3,2 km/h W-SW 16,6 C 22,3 C 1,8 km/h
05.10.2013 14:00 21,8 C 69 % 1013,6 hPa 0,0 l/m 1,9 km/h S 15,9 C 21,8 C 1,1 km/h
05.10.2013 15:00 22,6 C 71 % 1013,2 hPa 0,0 l/m 7,8 km/h S 17,1 C 22,1 C 4,3 km/h
05.10.2013 16:00 18,4 C 77 % 1014,1 hPa 0,0 l/m 22,0 km/h SW 14,3 C 13,7 C 12,2 km/h
05.10.2013 17:00 16,5 C 81 % 1014,5 hPa 0,0 l/m 33,0 km/h W 13,2 C 9,4 C 18,4 km/h
05.10.2013 18:00 15,9 C 81 % 1015,1 hPa 0,0 l/m 1,3 km/h W 12,6 C 15,9 C 0,7 km/h
05.10.2013 19:00 15,6 C 82 % 1015,6 hPa 0,0 l/m 0,0 km/h N-NW 12,5 C 15,6 C 0,0 km/h
05.10.2013 20:00 14,4 C 81 % 1016,4 hPa 1,0 l/m 0,0 km/h NW 11,2 C 14,4 C 0,0 km/h
05.10.2013 21:00 13,9 C 78 % 1017,5 hPa 0,5 l/m 0,0 km/h W-NW 10,1 C 13,9 C 0,0 km/h
05.10.2013 22:00 13,8 C 73 % 1018,2 hPa 0,5 l/m 1,9 km/h W-NW 9,0 C 13,8 C 1,1 km/h
05.10.2013 23:00 13,8 C 67 % 1018,9 hPa 2,6 l/m 1,9 km/h W-NW 7,8 C 13,8 C 1,1 km/h
06.10.2013 00:00 13,8 C 64 % 1018,9 hPa 1,0 l/m 18,8 km/h W 7,1 C 8,5 C 10,4 km/h
06.10.2013 01:00 13,4 C 62 % 1019,1 hPa 1,0 l/m 2,6 km/h W-NW 6,3 C 13,4 C 1,4 km/h
06.10.2013 02:00 13,4 C 61 % 1019,3 hPa 2,1 l/m 1,3 km/h W-NW 6,0 C 13,4 C 0,7 km/h
06.10.2013 03:00 13,2 C 60 % 1019,4 hPa 1,0 l/m 0,0 km/h W-NW 5,6 C 13,2 C 0,0 km/h
06.10.2013 04:00 13,2 C 59 % 1019,3 hPa 0,0 l/m 0,0 km/h W-NW 5,4 C 13,2 C 0,0 km/h
06.10.2013 05:00 13,2 C 59 % 1019,5 hPa 0,0 l/m 0,0 km/h W-NW 5,4 C 13,2 C 0,0 km/h
06.10.2013 06:00 13,3 C 58 % 1019,6 hPa 0,5 l/m 0,0 km/h W-SW 5,2 C 13,3 C 0,0 km/h
06.10.2013 07:00 13,3 C 57 % 1019,7 hPa 1,6 l/m 3,2 km/h W 5,0 C 13,3 C 1,8 km/h
06.10.2013 08:00 13,3 C 56 % 1020,3 hPa 1,6 l/m 0,0 km/h W-NW 4,7 C 13,3 C 0,0 km/h
06.10.2013 09:00 13,5 C 55 % 1020,5 hPa 1,0 l/m 0,0 km/h NW 4,6 C 13,5 C 0,0 km/h
06.10.2013 10:00 14,4 C 54 % 1021,0 hPa 0,5 l/m 0,0 km/h W-NW 5,2 C 14,4 C 0,0 km/h
06.10.2013 11:00 15,4 C 82 % 1021,2 hPa 0,0 l/m 0,0 km/h NO 12,3 C 15,4 C 0,0 km/h
06.10.2013 12:00 17,1 C 82 % 1021,4 hPa 0,0 l/m 7,8 km/h N-NO 14,0 C 16,4 C 4,3 km/h
06.10.2013 13:00 19,3 C 69 % 1021,3 hPa 0,0 l/m 16,2 km/h NO 13,5 C 16,1 C 9,0 km/h
06.10.2013 14:00 18,4 C 71 % 1021,1 hPa 0,0 l/m 4,5 km/h N-NO 13,0 C 18,4 C 2,5 km/h
06.10.2013 15:00 17,3 C 74 % 1021,1 hPa 0,0 l/m 9,7 km/h NO 12,6 C 15,8 C 5,4 km/h
06.10.2013 16:00 15,3 C 78 % 1021,5 hPa 0,0 l/m 11,7 km/h NO 11,5 C 12,7 C 6,5 km/h
06.10.2013 17:00 14,2 C 82 % 1021,5 hPa 0,0 l/m 0,6 km/h N-NO 11,2 C 14,2 C 0,4 km/h
06.10.2013 18:00 13,6 C 83 % 1021,7 hPa 0,0 l/m 0,0 km/h NO 10,8 C 13,6 C 0,0 km/h
06.10.2013 19:00 13,1 C 84 % 1022,3 hPa 0,0 l/m 0,0 km/h N-NO 10,5 C 13,1 C 0,0 km/h
06.10.2013 20:00 12,8 C 84 % 1022,5 hPa 0,0 l/m 4,5 km/h N-NW 10,2 C 12,8 C 2,5 km/h
06.10.2013 21:00 12,6 C 84 % 1022,9 hPa 0,0 l/m 0,0 km/h NW 10,0 C 12,6 C 0,0 km/h
06.10.2013 22:00 12,3 C 81 % 1022,9 hPa 0,0 l/m 0,0 km/h N-NW 9,1 C 12,3 C 0,0 km/h
06.10.2013 23:00 12,2 C 78 % 1022,9 hPa 0,0 l/m 0,0 km/h N-NW 8,5 C 12,2 C 0,0 km/h
Min-Datum _ 03.10.13 02.10.13 30.09.13 - 30.09.13 - 02.10.13 03.10.13 30.09.13
_ Min-Zeit 07:19 16:19 07:19 - 00:19 - 08:19 07:19 00:19
Minimum _ 6,6 C 52 % 1003,6 hPa - 0,0 km/h - 3,5 C 6,6 C 0,0 km/h
Max-Datum _ 04.10.13 30.09.13 06.10.13 05.10.13 05.10.13 - 04.10.13 04.10.13 05.10.13
_ Max-Zeit 16:19 09:19 21:19 07:19 17:19 - 15:19 16:19 17:19
Maximum _ 25,1 C 84 % 1022,9 hPa 4,7 l/m 33,0 km/h
W
- 17,8 C 25,1 C 18,4 km/h
W
Durchschnitt _ 14,6 C 75 % 1013,3 hPa #37,8 l/m 1,6 km/h W-NW 10,0 C 14,4 C 0,9 km/h
www.sexauwetter.de